Time;durP1;ratioP1;P1;durP2;ratioP2;P2;SDS_P1;SDS_P2;PMS_P1;PMS_P2;Temp;Humidity;BMP_temperature;BMP_pressure;BME280_temperature;BME280_humidity;BME280_pressure;Samples;Min_cycle;Max_cycle;Signal;HPM_P1;HPM_P2
2021/11/18 00:00:18;;;;;;;11.75;7.00;;;;;;;5.24;100.00;99919.13;5071210;28;20537;-72
2021/11/18 00:02:44;;;;;;;13.98;7.28;;;;;;;5.19;100.00;99894.56;5072080;28;20583;-71
2021/11/18 00:05:12;;;;;;;15.13;7.75;;;;;;;5.27;100.00;99911.63;5072403;28;20025;-71
2021/11/18 00:07:42;;;;;;;13.90;6.70;;;;;;;5.25;100.00;99904.69;5072587;28;20443;-71
2021/11/18 00:10:08;;;;;;;11.73;6.72;;;;;;;5.29;100.00;99919.50;5062709;28;20027;-72
2021/11/18 00:12:33;;;;;;;12.57;7.35;;;;;;;5.18;100.00;99900.88;5070490;28;20025;-72
2021/11/18 00:14:58;;;;;;;13.85;7.32;;;;;;;5.03;100.00;99884.34;5072697;28;20039;-71
2021/11/18 00:17:24;;;;;;;11.10;7.07;;;;;;;5.19;100.00;99910.66;5054862;28;20023;-71
2021/11/18 00:19:49;;;;;;;12.05;6.57;;;;;;;5.07;100.00;99898.34;5071963;28;20047;-71
2021/11/18 00:22:14;;;;;;;11.90;6.57;;;;;;;5.22;100.00;99921.09;5040565;28;20036;-71
2021/11/18 00:24:39;;;;;;;16.30;7.10;;;;;;;5.28;100.00;99929.41;5071238;28;20028;-72
2021/11/18 00:27:05;;;;;;;12.52;6.93;;;;;;;5.25;100.00;99923.47;5060067;28;20027;-71
2021/11/18 00:29:30;;;;;;;11.02;6.32;;;;;;;5.25;100.00;99923.47;5053963;28;20024;-71
2021/11/18 00:31:55;;;;;;;14.13;6.75;;;;;;;5.30;100.00;99920.38;5069317;28;20397;-71
2021/11/18 00:34:21;;;;;;;13.45;6.72;;;;;;;5.37;100.00;99908.94;5072067;28;20060;-71
2021/11/18 00:36:46;;;;;;;16.13;7.20;;;;;;;5.32;100.00;99921.06;5055053;28;20486;-72
2021/11/18 00:39:12;;;;;;;12.65;7.40;;;;;;;5.28;100.00;99915.97;5069287;28;20021;-71
2021/11/18 00:41:38;;;;;;;14.05;7.55;;;;;;;5.16;100.00;99910.91;5069315;28;20025;-71
2021/11/18 00:44:06;;;;;;;15.95;7.78;;;;;;;5.16;100.00;99927.00;5052963;28;20449;-71
2021/11/18 00:46:33;;;;;;;13.38;7.32;;;;;;;5.17;100.00;99934.06;5071551;28;20024;-71
2021/11/18 00:48:59;;;;;;;11.95;6.72;;;;;;;4.98;100.00;99898.22;5071785;28;20077;-71
2021/11/18 00:51:25;;;;;;;11.48;7.28;;;;;;;4.96;100.00;99864.47;5071791;28;20024;-72
2021/11/18 00:53:57;;;;;;;12.85;7.57;;;;;;;5.18;100.00;99920.50;5046844;28;20024;-71
2021/11/18 00:56:24;;;;;;;11.43;7.05;;;;;;;5.15;100.00;99895.81;5061207;28;20029;-71
2021/11/18 00:58:51;;;;;;;14.48;8.90;;;;;;;5.23;100.00;99925.44;5054782;28;20024;-71
2021/11/18 01:01:20;;;;;;;19.90;9.25;;;;;;;5.03;100.00;99900.44;5062593;28;20154;-71
2021/11/18 01:03:46;;;;;;;17.63;8.88;;;;;;;5.10;100.00;99916.84;5036224;28;20395;-70
2021/11/18 01:06:12;;;;;;;16.83;9.20;;;;;;;5.17;100.00;99931.41;5059263;28;20025;-71
2021/11/18 01:08:37;;;;;;;17.98;9.32;;;;;;;5.13;100.00;99928.13;5057570;28;20508;-71
2021/11/18 01:11:10;;;;;;;15.50;9.18;;;;;;;5.16;100.00;99927.00;5071345;28;20445;-71
2021/11/18 01:13:35;;;;;;;16.73;8.77;;;;;;;5.20;100.00;99904.28;5070316;28;20121;-71
2021/11/18 01:16:03;;;;;;;14.38;7.75;;;;;;;5.30;100.00;99896.22;5064376;28;20565;-70
2021/11/18 01:18:29;;;;;;;20.67;9.13;;;;;;;5.18;100.00;99890.16;5071430;28;20024;-71
2021/11/18 01:20:55;;;;;;;20.38;9.90;;;;;;;5.36;100.00;99925.16;5050135;28;20501;-71
2021/11/18 01:23:26;;;;;;;12.00;7.38;;;;;;;5.39;100.00;99924.88;5053970;28;20127;-71
2021/11/18 01:25:52;;;;;;;20.50;9.50;;;;;;;5.25;100.00;99932.38;5071905;28;20031;-71
2021/11/18 01:28:17;;;;;;;24.98;11.35;;;;;;;5.20;100.00;99940.00;5070957;28;20025;-71
2021/11/18 01:30:43;;;;;;;21.08;10.45;;;;;;;5.07;100.00;99922.50;5066456;28;20037;-71
2021/11/18 01:33:12;;;;;;;24.13;10.55;;;;;;;5.11;100.00;99935.50;5069267;28;20498;-71
2021/11/18 01:35:39;;;;;;;14.20;8.43;;;;;;;5.11;100.00;99937.31;5067491;28;20073;-70
2021/11/18 01:38:04;;;;;;;13.82;8.70;;;;;;;5.08;100.00;99945.63;5071415;28;20032;-70
2021/11/18 01:40:35;;;;;;;18.17;9.10;;;;;;;4.97;100.00;99933.19;5070895;28;20032;-70
2021/11/18 01:43:01;;;;;;;15.27;8.90;;;;;;;5.02;100.00;99950.56;5070384;28;20028;-70
2021/11/18 01:45:30;;;;;;;16.42;8.95;;;;;;;5.03;100.00;99949.59;5057994;28;20028;-71
2021/11/18 01:47:56;;;;;;;14.25;8.43;;;;;;;5.04;100.00;99947.75;5056732;28;20016;-70
2021/11/18 01:50:24;;;;;;;12.63;8.52;;;;;;;4.87;100.00;99926.97;5074359;28;20397;-69
2021/11/18 01:52:50;;;;;;;15.88;9.98;;;;;;;4.87;100.00;99922.47;5075616;28;20035;-70
2021/11/18 01:55:20;;;;;;;15.82;9.15;;;;;;;5.02;100.00;99936.31;5057493;28;20025;-69
2021/11/18 01:57:46;;;;;;;;;;;;;;;5.13;100.00;99944.22;5047888;28;20040;-70
2021/11/18 02:00:17;;;;;;;13.25;8.38;;;;;;;5.19;100.00;99940.16;5074229;28;19919;-70
2021/11/18 02:02:44;;;;;;;16.65;8.55;;;;;;;5.05;100.00;99933.34;5056826;28;20122;-70
2021/11/18 02:05:26;;;;;;;15.98;8.55;;;;;;;5.13;100.00;99946.06;5075088;28;20510;-70
2021/11/18 02:07:53;;;;;;;16.30;9.15;;;;;;;5.11;100.00;99937.31;5073646;28;20035;-69
2021/11/18 02:10:30;;;;;;;17.73;8.68;;;;;;;5.08;100.00;99934.91;5070767;28;20028;-70
2021/11/18 02:12:57;;;;;;;19.10;9.52;;;;;;;5.15;100.00;99942.25;5068975;28;20045;-70
2021/11/18 02:15:43;;;;;;;20.60;9.60;;;;;;;5.11;100.00;99954.28;5069190;28;20066;-70
2021/11/18 02:18:14;;;;;;;15.02;9.55;;;;;;;5.20;100.00;99961.47;5074810;28;20202;-70
2021/11/18 02:20:39;;;;;;;14.20;8.20;;;;;;;5.23;100.00;99963.00;5073289;28;20024;-70
2021/11/18 02:23:17;;;;;;;15.23;9.20;;;;;;;5.21;100.00;99956.94;5062983;28;20440;-69
2021/11/18 02:25:43;;;;;;;13.43;8.68;;;;;;;4.96;100.00;99931.53;5074026;28;20385;-69
2021/11/18 02:28:08;;;;;;;14.48;8.65;;;;;;;5.21;100.00;99976.59;5074690;28;20028;-69
2021/11/18 02:30:38;;;;;;;16.13;8.55;;;;;;;5.24;100.00;99978.16;5073656;28;20074;-69
2021/11/18 02:33:04;;;;;;;16.85;9.02;;;;;;;5.30;100.00;99980.25;5073857;28;20029;-70
2021/11/18 02:35:31;;;;;;;16.67;9.02;;;;;;;5.32;100.00;99983.66;5074228;28;20025;-70
2021/11/18 02:37:58;;;;;;;17.75;8.90;;;;;;;5.34;100.00;99984.34;5074072;28;20051;-69
2021/11/18 02:40:26;;;;;;;13.32;8.48;;;;;;;5.24;100.00;99976.31;5071029;28;20454;-69
2021/11/18 02:42:55;;;;;;;13.80;8.40;;;;;;;5.32;100.00;99990.81;5036721;28;20025;-69
2021/11/18 02:45:24;;;;;;;17.52;9.07;;;;;;;5.32;100.00;99989.00;5073335;28;20060;-68
2021/11/18 02:47:50;;;;;;;17.10;9.98;;;;;;;5.25;100.00;99977.97;5075066;28;20040;-69
2021/11/18 02:50:25;;;;;;;15.18;8.98;;;;;;;5.27;100.00;99993.97;5073995;28;20024;-69
2021/11/18 02:52:51;;;;;;;15.82;9.50;;;;;;;5.34;100.00;99989.69;5053892;28;20033;-69
2021/11/18 02:55:21;;;;;;;16.88;10.15;;;;;;;5.29;100.00;99989.28;5065945;28;20037;-69
2021/11/18 02:57:48;;;;;;;22.63;10.50;;;;;;;5.25;100.00;99980.66;5071160;28;20033;-69
2021/11/18 03:00:21;;;;;;;19.95;9.65;;;;;;;5.38;100.00;99990.28;5067999;28;20032;-69
2021/11/18 03:02:47;;;;;;;17.75;9.70;;;;;;;5.46;100.00;99988.59;5056003;28;20394;-69
2021/11/18 03:05:16;;;;;;;17.17;9.63;;;;;;;5.36;100.00;99977.00;5067526;28;20032;-72
2021/11/18 03:07:42;;;;;;;15.13;9.88;;;;;;;5.36;100.00;99960.06;5073654;28;20033;-71
2021/11/18 03:10:09;;;;;;;16.65;9.80;;;;;;;5.45;100.00;99976.16;5073742;28;20028;-72
2021/11/18 03:12:34;;;;;;;16.08;9.55;;;;;;;5.36;100.00;99968.94;5074283;28;20036;-73
2021/11/18 03:15:01;;;;;;;16.27;9.43;;;;;;;5.38;100.00;99952.72;5073753;28;20032;-71
2021/11/18 03:17:26;;;;;;;18.73;9.55;;;;;;;5.48;100.00;99959.78;5073797;28;20028;-71
2021/11/18 03:19:51;;;;;;;16.45;9.50;;;;;;;5.51;100.00;99960.47;5069016;28;20036;-71
2021/11/18 03:22:17;;;;;;;18.00;9.77;;;;;;;5.48;100.00;99969.66;5055503;28;20096;-71
2021/11/18 03:24:42;;;;;;;14.90;9.02;;;;;;;5.40;100.00;99975.75;5053717;28;20081;-72
2021/11/18 03:27:08;;;;;;;18.60;10.18;;;;;;;5.29;100.00;99962.44;5065717;28;20482;-72
2021/11/18 03:29:34;;;;;;;18.67;10.05;;;;;;;5.41;100.00;99988.16;5071685;28;20039;-71
2021/11/18 03:31:59;;;;;;;15.52;9.20;;;;;;;5.28;100.00;99980.38;5060074;28;20024;-71
2021/11/18 03:34:29;;;;;;;18.52;10.05;;;;;;;5.30;100.00;99982.94;5049117;28;20032;-71
2021/11/18 03:36:55;;;;;;;15.73;10.25;;;;;;;5.32;100.00;99985.47;5055042;28;20025;-71
2021/11/18 03:39:22;;;;;;;16.50;10.20;;;;;;;5.15;100.00;99958.34;5053430;28;20028;-71
2021/11/18 03:41:50;;;;;;;18.17;10.77;;;;;;;5.17;100.00;99982.38;5061442;28;20028;-71
2021/11/18 03:44:18;;;;;;;19.20;10.68;;;;;;;5.22;100.00;99988.16;5073364;28;20146;-71
2021/11/18 03:46:50;;;;;;;19.52;10.65;;;;;;;5.18;100.00;99989.41;5072841;28;20025;-72
2021/11/18 03:49:16;;;;;;;16.48;10.23;;;;;;;5.20;100.00;100000.84;5061748;28;20029;-71
2021/11/18 03:51:42;;;;;;;18.55;10.65;;;;;;;5.23;100.00;100001.41;5073282;28;20035;-72
2021/11/18 03:54:10;;;;;;;20.15;11.23;;;;;;;5.11;100.00;99993.63;5072975;28;20024;-71
2021/11/18 03:56:39;;;;;;;18.50;10.88;;;;;;;5.39;100.00;100018.81;5073006;28;20020;-71
2021/11/18 03:59:11;;;;;;;20.35;11.25;;;;;;;5.33;100.00;100006.81;5054322;28;20024;-71
2021/11/18 04:01:38;;;;;;;19.50;10.52;;;;;;;5.29;100.00;100008.06;5071382;28;20089;-72
2021/11/18 04:04:06;;;;;;;18.08;10.50;;;;;;;5.32;100.00;100015.84;5072732;28;20493;-72
2021/11/18 04:06:31;;;;;;;17.23;10.35;;;;;;;5.20;100.00;99995.50;5071978;28;20031;-71
2021/11/18 04:08:57;;;;;;;19.20;10.15;;;;;;;5.31;100.00;100027.56;5071970;28;20029;-69
2021/11/18 04:11:22;;;;;;;16.63;10.50;;;;;;;5.31;100.00;100024.88;5072645;28;20417;-69
2021/11/18 04:13:48;;;;;;;15.77;9.68;;;;;;;5.22;100.00;100006.94;5072378;28;20511;-70
2021/11/18 04:16:13;;;;;;;16.33;10.05;;;;;;;5.35;100.00;100020.09;5061423;28;20404;-69
2021/11/18 04:18:38;;;;;;;18.73;10.98;;;;;;;5.32;100.00;100010.47;5067989;28;20024;-69
2021/11/18 04:21:04;;;;;;;19.30;10.27;;;;;;;5.28;100.00;100019.78;5079026;28;20028;-70
2021/11/18 04:23:29;;;;;;;18.83;10.82;;;;;;;5.29;100.00;100026.84;5072446;28;20028;-71
2021/11/18 04:25:55;;;;;;;18.30;10.35;;;;;;;5.30;100.00;100030.41;5063694;28;20027;-69
2021/11/18 04:28:22;;;;;;;22.92;11.63;;;;;;;5.41;100.00;100017.69;5072206;28;20102;-69
2021/11/18 04:30:56;;;;;;;17.23;11.00;;;;;;;5.34;100.00;100034.47;5070896;28;20032;-69
2021/11/18 04:33:23;;;;;;;17.15;10.35;;;;;;;5.35;100.00;100037.03;5072305;28;20370;-71
2021/11/18 04:35:48;;;;;;;16.17;9.85;;;;;;;5.25;100.00;100028.13;5054057;28;20032;-71
2021/11/18 04:38:14;;;;;;;16.52;9.85;;;;;;;5.17;100.00;100010.03;5052434;28;20102;-71
2021/11/18 04:40:40;;;;;;;20.23;11.43;;;;;;;5.38;100.00;100043.97;5074703;28;20028;-70
2021/11/18 04:43:06;;;;;;;18.73;10.27;;;;;;;5.37;100.00;100035.06;5072945;28;20043;-70
2021/11/18 04:45:32;;;;;;;17.45;10.50;;;;;;;5.46;100.00;100034.22;5066005;28;20533;-70
2021/11/18 04:47:58;;;;;;;19.90;10.18;;;;;;;5.46;100.00;100047.63;5052244;28;20033;-69
2021/11/18 04:50:24;;;;;;;19.02;10.10;;;;;;;5.46;100.00;100041.41;5063573;28;20032;-69
2021/11/18 04:52:50;;;;;;;17.40;9.85;;;;;;;5.32;100.00;100018.53;5072099;28;20028;-69
2021/11/18 04:55:19;;;;;;;15.43;9.02;;;;;;;5.42;100.00;100045.34;5071365;28;20519;-68
2021/11/18 04:57:46;;;;;;;20.58;11.25;;;;;;;5.38;100.00;100055.53;5072061;28;20092;-72
2021/11/18 05:00:18;;;;;;;22.90;12.40;;;;;;;5.38;100.00;100054.69;5062502;28;20028;-71
2021/11/18 05:02:44;;;;;;;22.33;11.23;;;;;;;5.16;100.00;100011.03;5070573;28;20075;-71
2021/11/18 05:05:13;;;;;;;16.95;10.23;;;;;;;5.22;100.00;100028.41;5068816;28;20025;-71
2021/11/18 05:07:39;;;;;;;16.77;9.52;;;;;;;5.42;100.00;100018.53;5057700;28;20031;-72
2021/11/18 05:10:06;;;;;;;14.13;8.82;;;;;;;5.56;100.00;100055.69;5035715;28;20389;-73
2021/11/18 05:12:32;;;;;;;16.25;9.45;;;;;;;5.41;100.00;100047.19;5052850;28;20034;-72
2021/11/18 05:14:58;;;;;;;18.23;9.05;;;;;;;5.41;100.00;100024.88;5066320;28;20498;-71
2021/11/18 05:17:23;;;;;;;17.75;9.70;;;;;;;5.23;100.00;100022.03;5067428;28;20039;-69
2021/11/18 05:19:49;;;;;;;19.17;10.20;;;;;;;5.30;100.00;100043.81;5068753;28;20025;-75
2021/11/18 05:22:14;;;;;;;19.60;10.85;;;;;;;5.26;100.00;100035.16;5053736;28;20032;-74
2021/11/18 05:24:40;;;;;;;17.98;10.60;;;;;;;5.17;100.00;100030.66;5070418;28;20400;-74
2021/11/18 05:27:05;;;;;;;17.80;9.45;;;;;;;5.24;100.00;100040.69;5078114;28;20103;-71
2021/11/18 05:29:30;;;;;;;15.57;9.60;;;;;;;5.41;100.00;100071.34;5069675;28;20037;-70
2021/11/18 05:31:56;;;;;;;22.38;10.02;;;;;;;5.28;100.00;100041.25;5064024;28;20131;-70
2021/11/18 05:34:22;;;;;;;20.83;10.15;;;;;;;5.28;100.00;100043.94;5063507;28;20044;-74
2021/11/18 05:36:47;;;;;;;15.88;9.02;;;;;;;5.39;100.00;100067.13;5065640;28;20017;-72
2021/11/18 05:39:13;;;;;;;20.98;10.23;;;;;;;5.39;100.00;100069.78;5051443;28;20521;-70
2021/11/18 05:41:38;;;;;;;19.83;9.57;;;;;;;5.45;100.00;100070.09;5048563;28;20021;-73
2021/11/18 05:44:04;;;;;;;19.70;10.15;;;;;;;5.24;100.00;100047.91;5040023;28;20539;-72
2021/11/18 05:46:34;;;;;;;17.40;9.52;;;;;;;5.37;100.00;100064.59;5052172;28;20029;-71
2021/11/18 05:49:00;;;;;;;16.77;9.50;;;;;;;5.56;100.00;100062.91;5069224;28;20075;-73
2021/11/18 05:51:26;;;;;;;16.63;9.52;;;;;;;5.53;100.00;100052.44;5065269;28;20029;-71
2021/11/18 05:53:52;;;;;;;16.55;9.68;;;;;;;5.54;100.00;100078.31;5070546;28;20021;-75
2021/11/18 05:56:21;;;;;;;16.73;8.82;;;;;;;5.47;100.00;100065.41;5049646;28;20169;-71
2021/11/18 05:58:48;;;;;;;16.90;8.80;;;;;;;5.27;100.00;100042.25;5071199;28;20402;-76
2021/11/18 06:01:16;;;;;;;17.70;9.88;;;;;;;5.27;100.00;100043.09;5063495;28;20060;-72
2021/11/18 06:03:41;;;;;;;18.30;9.48;;;;;;;5.41;100.00;100071.34;5055283;28;20090;-73
2021/11/18 06:06:07;;;;;;;19.08;10.48;;;;;;;5.27;100.00;100051.16;5067476;28;20496;-73
2021/11/18 06:08:33;;;;;;;19.20;10.07;;;;;;;5.31;100.00;100075.84;5067178;28;20441;-72
2021/11/18 06:11:00;;;;;;;24.00;12.82;;;;;;;5.13;100.00;100045.31;5054012;28;20021;-70
2021/11/18 06:13:25;;;;;;;26.00;11.98;;;;;;;5.20;100.00;100062.56;5055590;28;20059;-70
2021/11/18 06:15:51;;;;;;;21.67;11.75;;;;;;;5.18;100.00;100059.16;5060214;28;20059;-74
2021/11/18 06:18:17;;;;;;;21.02;11.77;;;;;;;5.33;100.00;100078.41;5068654;28;20371;-69
2021/11/18 06:20:43;;;;;;;21.85;11.85;;;;;;;5.32;100.00;100084.75;5060436;28;20098;-77
2021/11/18 06:23:10;;;;;;;25.50;12.90;;;;;;;5.21;100.00;100070.50;5067910;28;20505;-73
2021/11/18 06:25:36;;;;;;;20.35;11.70;;;;;;;5.33;100.00;100094.50;5070785;28;20036;-76
2021/11/18 06:28:04;;;;;;;23.40;12.43;;;;;;;5.15;100.00;100070.19;5056492;28;20024;-74
2021/11/18 06:30:34;;;;;;;20.90;11.75;;;;;;;5.37;100.00;100095.91;5073024;28;20039;-78
2021/11/18 06:32:59;;;;;;;;;;;;;;;5.48;100.00;100096.66;5072808;28;20440;-75
2021/11/18 06:35:25;;;;;;;19.52;10.65;;;;;;;5.34;100.00;100094.34;5065888;28;19962;-76
2021/11/18 06:37:50;;;;;;;22.73;11.90;;;;;;;5.28;100.00;100076.97;5056599;28;20033;-76
2021/11/18 06:40:18;;;;;;;23.08;12.30;;;;;;;5.49;100.00;100110.91;5055270;28;20364;-71
2021/11/18 06:42:46;;;;;;;21.77;12.02;;;;;;;5.41;100.00;100106.25;5059998;28;20032;-76
2021/11/18 06:45:13;;;;;;;20.60;12.73;;;;;;;5.40;100.00;100103.72;5071298;28;20028;-76
2021/11/18 06:47:39;;;;;;;21.08;12.02;;;;;;;5.37;100.00;100117.38;5058870;28;20540;-76
2021/11/18 06:50:05;;;;;;;22.40;12.48;;;;;;;5.39;100.00;100116.25;5036314;28;20025;-76
2021/11/18 06:52:30;;;;;;;21.52;12.25;;;;;;;5.48;100.00;100123.50;5057181;28;20028;-70
2021/11/18 06:54:56;;;;;;;20.35;11.75;;;;;;;5.39;100.00;100100.16;5073209;28;20093;-73
2021/11/18 06:57:22;;;;;;;21.50;11.93;;;;;;;5.60;100.00;100128.75;5073955;28;20655;-74
2021/11/18 06:59:47;;;;;;;26.48;11.90;;;;;;;5.36;100.00;100113.84;5071098;28;20109;-76
2021/11/18 07:02:14;;;;;;;19.83;11.95;;;;;;;5.53;100.00;100130.28;5059407;28;20044;-78
2021/11/18 07:04:40;;;;;;;20.85;11.93;;;;;;;5.45;100.00;100099.63;5067528;28;20032;-77
2021/11/18 07:07:05;;;;;;;21.05;11.20;;;;;;;5.55;100.00;100136.34;5073560;28;20025;-79
2021/11/18 07:09:33;;;;;;;19.92;11.77;;;;;;;5.59;100.00;100127.06;5070025;28;20032;-78
2021/11/18 07:11:58;;;;;;;18.02;10.75;;;;;;;5.88;100.00;100154.78;5078502;28;20055;-76
2021/11/18 07:14:24;;;;;;;18.92;10.63;;;;;;;5.55;100.00;100106.84;5067384;28;20497;-77
2021/11/18 07:16:49;;;;;;;21.15;11.40;;;;;;;5.73;100.00;100150.81;5061725;28;20115;-74
2021/11/18 07:19:15;;;;;;;19.60;11.45;;;;;;;5.51;100.00;100126.91;5074207;28;20466;-76
2021/11/18 07:21:40;;;;;;;19.48;11.05;;;;;;;5.57;100.00;100134.38;5063372;28;20508;-76
2021/11/18 07:24:07;;;;;;;21.42;11.70;;;;;;;5.57;100.00;100143.28;5067811;28;20051;-77
2021/11/18 07:26:37;;;;;;;27.17;12.10;;;;;;;5.65;100.00;100172.13;5057575;28;20020;-77
2021/11/18 07:29:04;;;;;;;20.83;11.55;;;;;;;5.38;100.00;100128.00;5079380;28;20507;-77
2021/11/18 07:31:30;;;;;;;19.08;11.02;;;;;;;5.72;100.00;100181.34;5056637;28;20116;-73
2021/11/18 07:33:55;;;;;;;18.60;11.27;;;;;;;5.72;100.00;100174.13;5056230;28;20482;-71
2021/11/18 07:36:21;;;;;;;23.40;11.48;;;;;;;5.78;100.00;100179.94;5071076;28;20038;-72
2021/11/18 07:38:46;;;;;;;21.50;11.85;;;;;;;5.72;100.00;100170.59;5072277;28;20020;-71
2021/11/18 07:41:12;;;;;;;21.23;11.60;;;;;;;5.68;100.00;100163.78;5072250;28;20033;-72
2021/11/18 07:43:41;;;;;;;18.73;10.82;;;;;;;5.90;100.00;100189.56;5069379;28;20029;-71
2021/11/18 07:46:08;;;;;;;21.30;11.50;;;;;;;5.90;100.00;100194.94;5053354;28;20033;-71
2021/11/18 07:48:34;;;;;;;19.13;11.27;;;;;;;5.87;100.00;100190.69;5053788;28;20033;-73
2021/11/18 07:51:02;;;;;;;21.67;11.00;;;;;;;5.71;100.00;100160.81;5073067;28;20023;-72
2021/11/18 07:53:29;;;;;;;19.85;12.00;;;;;;;5.88;100.00;100188.84;5072850;28;20393;-71
2021/11/18 07:55:54;;;;;;;20.38;10.85;;;;;;;5.91;100.00;100169.78;5070514;28;20474;-71
2021/11/18 07:58:20;;;;;;;20.02;11.35;;;;;;;5.83;100.00;100164.25;5072202;28;20091;-73
2021/11/18 08:00:48;;;;;;;24.88;12.43;;;;;;;5.89;100.00;100186.03;5073175;28;20027;-74
2021/11/18 08:03:14;;;;;;;23.77;12.27;;;;;;;5.78;100.00;100175.41;5072920;28;20047;-73
2021/11/18 08:05:40;;;;;;;21.42;12.20;;;;;;;5.85;100.00;100184.63;5068084;28;20028;-74
2021/11/18 08:08:06;;;;;;;21.70;12.00;;;;;;;5.71;100.00;100168.88;5043770;28;20033;-74
2021/11/18 08:10:32;;;;;;;21.98;12.07;;;;;;;5.83;100.00;100183.91;5071083;28;20037;-73
2021/11/18 08:12:57;;;;;;;19.10;11.25;;;;;;;5.64;100.00;100146.28;5072261;28;20017;-76
2021/11/18 08:15:23;;;;;;;21.77;11.88;;;;;;;5.83;100.00;100159.72;5071767;28;20020;-73
2021/11/18 08:17:51;;;;;;;20.05;11.38;;;;;;;5.85;100.00;100155.06;5072036;28;20083;-76
2021/11/18 08:20:16;;;;;;;21.20;11.65;;;;;;;6.00;100.00;100171.66;5071560;28;20036;-71
2021/11/18 08:22:42;;;;;;;22.30;11.18;;;;;;;6.00;100.00;100184.22;5069449;28;20028;-72
2021/11/18 08:25:10;;;;;;;21.38;10.85;;;;;;;6.02;100.00;100193.00;5068682;28;20035;-69
2021/11/18 08:27:38;;;;;;;21.80;11.40;;;;;;;5.84;100.00;100166.81;5054597;28;20435;-70
2021/11/18 08:30:08;;;;;;;20.38;11.25;;;;;;;6.14;100.00;100206.16;5072131;28;20023;-72
2021/11/18 08:32:33;;;;;;;;;;;;;;;6.16;100.00;100208.72;5054804;28;20108;-70
2021/11/18 08:34:59;;;;;;;18.80;9.82;;;;;;;6.28;100.00;100207.56;5071663;28;20400;-71
2021/11/18 08:37:24;;;;;;;18.35;10.23;;;;;;;6.11;100.00;100186.81;5055189;28;20024;-72
2021/11/18 08:39:49;;;;;;;19.45;9.85;;;;;;;6.26;100.00;100184.53;5066652;28;20028;-69
2021/11/18 08:42:19;;;;;;;18.20;9.07;;;;;;;6.31;100.00;100190.31;5066529;28;20029;-72
2021/11/18 08:44:44;;;;;;;19.15;9.32;;;;;;;6.50;100.00;100217.22;5056772;28;20025;-70
2021/11/18 08:47:12;;;;;;;19.00;9.68;;;;;;;6.44;100.00;100206.16;5071218;28;20103;-66
2021/11/18 08:49:38;;;;;;;17.45;8.40;;;;;;;6.56;100.00;100221.16;5067514;28;20024;-70
2021/11/18 08:52:08;;;;;;;21.52;9.02;;;;;;;6.63;100.00;100219.63;5070748;28;20432;-71
2021/11/18 08:54:36;;;;;;;25.02;9.55;;;;;;;6.58;100.00;100217.34;5049628;28;20028;-69
2021/11/18 08:57:03;;;;;;;17.30;10.25;;;;;;;6.45;100.00;100191.75;5036912;28;20036;-70
2021/11/18 08:59:29;;;;;;;16.75;9.55;;;;;;;6.46;100.00;100201.50;5056438;28;20066;-73
2021/11/18 09:02:09;;;;;;;17.05;9.65;;;;;;;6.67;100.00;100226.38;5047509;28;20024;-69
2021/11/18 09:04:35;;;;;;;20.98;9.75;;;;;;;6.44;100.00;100187.34;5071619;28;20036;-71
2021/11/18 09:07:02;;;;;;;19.67;9.27;;;;;;;6.58;100.00;100216.50;5060006;28;20037;-69
2021/11/18 09:09:28;;;;;;;21.60;10.57;;;;;;;6.64;100.00;100215.91;5045680;28;20035;-72
2021/11/18 09:11:56;;;;;;;18.55;10.10;;;;;;;6.73;100.00;100209.69;5035164;28;20032;-71
2021/11/18 09:14:23;;;;;;;18.92;9.98;;;;;;;6.72;99.85;100194.53;5053594;28;20028;-75
2021/11/18 09:16:49;;;;;;;18.05;9.75;;;;;;;6.57;99.58;100182.53;5062229;28;20044;-73
2021/11/18 09:19:25;;;;;;;20.02;10.18;;;;;;;6.77;99.90;100211.09;5071485;28;20016;-71
2021/11/18 09:21:53;;;;;;;20.98;10.10;;;;;;;6.86;97.91;100209.34;5065332;28;20123;-73
2021/11/18 09:24:25;;;;;;;22.27;9.82;;;;;;;6.78;98.91;100212.78;5063083;28;20028;-71
2021/11/18 09:26:55;;;;;;;19.13;9.65;;;;;;;6.74;99.03;100202.47;5064204;28;20042;-72
2021/11/18 09:29:21;;;;;;;19.65;9.77;;;;;;;6.83;99.96;100224.94;5054976;28;20055;-68
2021/11/18 09:31:46;;;;;;;17.42;9.15;;;;;;;6.95;99.07;100204.97;5071449;28;20474;-72
2021/11/18 09:34:12;;;;;;;19.05;9.85;;;;;;;6.88;99.02;100209.22;5046984;28;20051;-69
2021/11/18 09:36:37;;;;;;;18.40;9.48;;;;;;;7.09;96.31;100219.78;5055801;28;20177;-75
2021/11/18 09:39:06;;;;;;;22.25;11.25;;;;;;;6.79;97.95;100175.97;5054882;28;20551;-72
2021/11/18 09:42:04;;;;;;;19.17;9.50;;;;;;;7.46;94.87;100204.47;5062408;28;20035;-73
2021/11/18 09:45:04;;;;;;;17.20;9.20;;;;;;;7.88;92.71;100220.13;5047515;28;20060;-73
2021/11/18 09:47:51;;;;;;;16.48;8.77;;;;;;;7.76;93.04;100212.44;5042069;28;20069;-70
2021/11/18 09:50:31;;;;;;;18.20;8.98;;;;;;;7.95;92.61;100211.47;5053167;28;20417;-72
2021/11/18 09:53:21;;;;;;;16.95;9.27;;;;;;;8.30;92.57;100224.09;5059658;28;20359;-73
2021/11/18 09:56:09;;;;;;;15.65;8.35;;;;;;;8.44;89.29;100220.91;5054090;28;20056;-73
2021/11/18 09:59:28;;;;;;;17.40;8.73;;;;;;;8.66;86.45;100221.44;5067942;28;20016;-72
2021/11/18 10:02:00;;;;;;;16.42;8.93;;;;;;;8.57;87.03;100225.94;4992535;28;20095;-72
2021/11/18 10:04:28;;;;;;;19.98;9.25;;;;;;;8.30;87.51;100224.94;5067693;28;20111;-73
2021/11/18 10:06:57;;;;;;;15.98;8.98;;;;;;;8.04;89.34;100229.41;5068574;28;20020;-72
2021/11/18 10:09:29;;;;;;;14.43;8.75;;;;;;;7.92;91.18;100241.41;5070196;28;20032;-73
2021/11/18 10:11:59;;;;;;;17.20;8.38;;;;;;;7.95;93.18;100241.09;5057231;28;20040;-72
2021/11/18 10:14:24;;;;;;;17.95;9.25;;;;;;;7.88;93.88;100224.69;5068836;28;20035;-74
2021/11/18 10:17:16;;;;;;;19.33;9.45;;;;;;;8.15;90.97;100222.94;5075709;28;20033;-73
2021/11/18 10:19:55;;;;;;;15.45;8.80;;;;;;;8.06;90.21;100214.78;5055137;28;20485;-70
2021/11/18 10:22:23;;;;;;;14.55;8.93;;;;;;;8.03;92.56;100198.06;5069427;28;20032;-76
2021/11/18 10:24:52;;;;;;;21.75;9.70;;;;;;;8.17;92.18;100223.63;5072637;28;20048;-73
2021/11/18 10:27:25;;;;;;;18.23;8.90;;;;;;;8.26;91.18;100222.75;5067744;28;20138;-74
2021/11/18 10:30:16;;;;;;;15.98;8.02;;;;;;;8.18;90.91;100177.69;5065279;28;20107;-72
2021/11/18 10:33:05;;;;;;;16.30;8.93;;;;;;;8.42;89.29;100225.63;5052420;28;20067;-72
2021/11/18 10:35:35;;;;;;;15.43;8.93;;;;;;;8.47;89.70;100204.41;5071848;28;20024;-70
2021/11/18 10:38:33;;;;;;;13.57;7.72;;;;;;;8.46;86.95;100196.47;5076241;28;20035;-74
2021/11/18 10:41:06;;;;;;;13.00;7.50;;;;;;;8.63;85.96;100210.97;4994899;28;20041;-72
2021/11/18 10:43:36;;;;;;;15.05;7.85;;;;;;;8.76;85.80;100206.00;5069531;28;20378;-70
2021/11/18 10:46:23;;;;;;;13.65;7.57;;;;;;;8.76;87.43;100201.44;5072413;28;20028;-65
2021/11/18 10:49:01;;;;;;;13.75;7.93;;;;;;;8.62;86.96;100195.75;5073827;28;20067;-65
2021/11/18 10:51:45;;;;;;;14.13;7.82;;;;;;;8.42;88.50;100170.84;5073130;28;20032;-66
2021/11/18 10:54:14;;;;;;;12.52;7.90;;;;;;;8.45;88.62;100192.09;5042879;28;20386;-66
2021/11/18 10:56:39;;;;;;;14.60;8.15;;;;;;;8.37;89.91;100189.31;5070123;28;20050;-66
2021/11/18 10:59:11;;;;;;;13.95;7.47;;;;;;;8.37;90.83;100195.53;5055880;28;20518;-65
2021/11/18 11:01:43;;;;;;;15.05;8.68;;;;;;;8.19;92.32;100195.53;5065826;28;20021;-66
2021/11/18 11:04:10;;;;;;;13.15;7.80;;;;;;;8.26;91.14;100199.31;5068725;28;20769;-66
2021/11/18 11:06:42;;;;;;;13.52;7.78;;;;;;;8.21;90.20;100204.31;5066678;28;20106;-66
2021/11/18 11:09:12;;;;;;;11.20;6.88;;;;;;;7.99;90.61;100208.31;5058653;28;20521;-66
2021/11/18 11:12:16;;;;;;;14.38;7.93;;;;;;;8.10;90.50;100215.34;5066327;28;20040;-71
2021/11/18 11:15:12;;;;;;;10.82;7.05;;;;;;;7.84;90.70;100188.28;5069970;28;20020;-68
2021/11/18 11:17:55;;;;;;;10.93;6.82;;;;;;;8.01;91.65;100206.28;5053181;28;20035;-68
2021/11/18 11:20:29;;;;;;;10.52;6.28;;;;;;;7.86;90.91;100205.16;5065525;28;20036;-68
2021/11/18 11:23:08;;;;;;;10.25;6.07;;;;;;;7.99;90.12;100200.22;5057893;28;20017;-68
2021/11/18 11:25:39;;;;;;;13.02;6.43;;;;;;;7.93;90.47;100195.44;5050923;28;20033;-68